createdAt,value
2017-08-12T00:01:00.924Z,79.17
2017-08-12T00:03:28.883Z,79.12
2017-08-12T00:05:56.534Z,78.67
2017-08-12T00:08:24.411Z,78.71
2017-08-12T00:10:52.073Z,76.94
2017-08-12T00:13:19.908Z,77.87
2017-08-12T00:15:47.651Z,78.50
2017-08-12T00:18:15.468Z,78.78
2017-08-12T00:20:43.129Z,78.03
2017-08-12T00:23:10.996Z,77.55
2017-08-12T00:25:38.866Z,77.82
2017-08-12T00:28:06.711Z,77.50
2017-08-12T00:30:34.655Z,77.72
2017-08-12T00:33:02.643Z,76.08
2017-08-12T00:35:36.478Z,76.01
2017-08-12T00:38:04.330Z,76.79
2017-08-12T00:40:32.212Z,76.25
2017-08-12T00:43:00.237Z,75.63
2017-08-12T00:45:28.129Z,75.53
2017-08-12T00:47:55.873Z,75.62
2017-08-12T00:50:23.839Z,76.11
2017-08-12T00:52:51.731Z,76.28
2017-08-12T00:55:19.409Z,76.43
2017-08-12T00:57:47.046Z,77.28
2017-08-12T01:00:14.943Z,77.43
2017-08-12T01:02:42.808Z,76.94
2017-08-12T01:05:10.877Z,76.36
2017-08-12T01:07:38.732Z,76.04
2017-08-12T01:10:06.453Z,77.43
2017-08-12T01:12:34.421Z,77.73
2017-08-12T01:15:02.137Z,78.03
2017-08-12T01:17:29.854Z,77.12
2017-08-12T01:19:57.843Z,77.05
2017-08-12T01:22:25.741Z,76.29
2017-08-12T01:24:53.398Z,76.77
2017-08-12T01:27:21.245Z,76.48
2017-08-12T01:29:48.937Z,76.03
2017-08-12T01:32:16.779Z,78.44
2017-08-12T01:34:44.844Z,77.89
2017-08-12T01:37:12.712Z,77.89
2017-08-12T01:39:40.657Z,77.24
2017-08-12T01:42:08.621Z,77.27
2017-08-12T01:44:36.614Z,78.73
2017-08-12T01:47:04.556Z,79.44
2017-08-12T01:49:32.448Z,76.58
2017-08-12T01:52:00.216Z,78.51
2017-08-12T01:54:28.182Z,77.73
2017-08-12T01:56:55.926Z,79.67
2017-08-12T01:59:23.951Z,77.75
2017-08-12T02:01:51.614Z,79.02
2017-08-12T02:04:19.603Z,78.14
2017-08-12T02:06:47.549Z,78.96
2017-08-12T02:09:15.285Z,79.44
2017-08-12T02:11:43.953Z,78.90
2017-08-12T02:14:11.753Z,77.95
2017-08-12T02:16:39.488Z,79.22
2017-08-12T02:19:07.291Z,78.62
2017-08-12T02:21:35.020Z,79.40
2017-08-12T02:24:02.825Z,78.24
2017-08-12T02:26:30.652Z,77.80
2017-08-12T02:28:58.554Z,77.79
2017-08-12T02:31:26.421Z,78.28
2017-08-12T02:33:54.132Z,80.31
2017-08-12T02:36:22.156Z,78.25
2017-08-12T02:38:49.988Z,77.68
2017-08-12T02:41:17.733Z,78.93
2017-08-12T02:43:45.598Z,78.32
2017-08-12T02:46:13.590Z,77.90
2017-08-12T02:48:41.335Z,78.36
2017-08-12T02:51:09.150Z,79.07
2017-08-12T02:53:37.220Z,80.19
2017-08-12T02:56:04.874Z,80.01
2017-08-12T02:58:32.723Z,80.30
2017-08-12T03:01:00.469Z,79.54
2017-08-12T03:03:28.485Z,79.33
2017-08-12T03:05:56.454Z,79.49
2017-08-12T03:08:24.222Z,80.33
2017-08-12T03:10:52.057Z,80.43
2017-08-12T03:13:19.956Z,81.71
2017-08-12T03:15:47.614Z,80.46
2017-08-12T03:18:15.635Z,81.78
2017-08-12T03:20:43.398Z,79.32
2017-08-12T03:23:11.370Z,79.62
2017-08-12T03:25:39.187Z,80.31
2017-08-12T03:28:07.006Z,79.68
2017-08-12T03:30:35.022Z,79.83
2017-08-12T03:33:03.039Z,80.48
2017-08-12T03:35:30.961Z,81.55
2017-08-12T03:37:58.796Z,82.08
2017-08-12T03:40:26.541Z,82.93
2017-08-12T03:42:54.357Z,82.71
2017-08-12T03:45:22.007Z,82.74
2017-08-12T03:47:49.869Z,82.80
2017-08-12T03:50:17.493Z,82.39
2017-08-12T03:52:45.351Z,81.82
2017-08-12T03:55:13.280Z,80.49
2017-08-12T03:57:41.209Z,75.64
2017-08-12T04:00:09.217Z,72.18
2017-08-12T04:02:36.869Z,67.24
2017-08-12T04:05:04.611Z,63.29
2017-08-12T04:07:32.528Z,59.22
2017-08-12T04:10:00.481Z,57.35
2017-08-12T04:12:28.212Z,54.67
2017-08-12T04:14:56.202Z,52.94
2017-08-12T04:17:24.022Z,52.27
2017-08-12T04:19:51.863Z,51.61
2017-08-12T04:22:19.706Z,49.58
2017-08-12T04:24:47.375Z,48.05
2017-08-12T04:27:14.992Z,47.58
2017-08-12T04:29:42.613Z,46.89
2017-08-12T04:32:10.267Z,46.80
2017-08-12T04:34:37.864Z,45.29
2017-08-12T04:37:05.582Z,43.56
2017-08-12T04:39:33.657Z,41.57
2017-08-12T04:42:01.490Z,41.45
2017-08-12T04:44:29.386Z,40.49
2017-08-12T04:46:57.073Z,40.45
2017-08-12T04:49:24.736Z,38.66
2017-08-12T04:51:52.340Z,37.25
2017-08-12T04:54:19.991Z,36.29
2017-08-12T04:56:47.594Z,36.08
2017-08-12T04:59:15.218Z,33.47
2017-08-12T05:01:42.866Z,35.79
2017-08-12T05:04:10.483Z,33.89
2017-08-12T05:06:38.094Z,32.72
2017-08-12T05:09:05.735Z,31.39
2017-08-12T05:11:33.358Z,30.94
2017-08-12T05:14:00.984Z,30.16
2017-08-12T05:16:28.659Z,30.25
2017-08-12T05:18:56.313Z,30.87
2017-08-12T05:21:23.966Z,29.87
2017-08-12T05:23:51.779Z,28.30
2017-08-12T05:26:19.380Z,26.41
2017-08-12T05:28:47.004Z,27.71
2017-08-12T05:31:14.670Z,25.70
2017-08-12T05:33:42.280Z,24.64
2017-08-12T05:36:09.912Z,24.06
2017-08-12T05:38:37.572Z,24.57
2017-08-12T05:41:05.215Z,25.40
2017-08-12T05:43:32.840Z,24.15
2017-08-12T05:46:00.482Z,23.75
2017-08-12T05:48:28.135Z,24.21
2017-08-12T05:50:55.784Z,23.16
2017-08-12T05:53:23.445Z,22.93
2017-08-12T05:55:51.119Z,22.61
2017-08-12T05:58:18.741Z,23.05
2017-08-12T06:00:46.473Z,23.09
2017-08-12T06:03:14.073Z,23.54
2017-08-12T06:05:41.669Z,23.66
2017-08-12T06:08:09.309Z,23.12
2017-08-12T06:10:36.913Z,23.97
2017-08-12T06:13:04.511Z,23.14
2017-08-12T06:15:32.180Z,22.52
2017-08-12T06:17:59.794Z,22.67
2017-08-12T06:20:27.389Z,25.18
2017-08-12T06:22:55.224Z,25.38
2017-08-12T06:25:22.838Z,23.09
2017-08-12T06:27:50.437Z,23.49
2017-08-12T06:30:18.096Z,22.36
2017-08-12T06:32:45.698Z,20.74
2017-08-12T06:35:13.311Z,21.04
2017-08-12T06:37:40.968Z,22.21
2017-08-12T06:40:08.550Z,20.84
2017-08-12T06:42:36.159Z,19.22
2017-08-12T06:45:03.934Z,16.91
2017-08-12T06:47:31.544Z,14.86
2017-08-12T06:49:59.198Z,15.58
2017-08-12T06:52:26.854Z,14.89
2017-08-12T06:54:54.485Z,18.38
2017-08-12T06:57:22.072Z,21.50
2017-08-12T06:59:49.901Z,15.48
2017-08-12T07:02:17.501Z,15.58
2017-08-12T07:04:45.117Z,14.40
2017-08-12T07:07:12.770Z,13.63
2017-08-12T07:09:40.374Z,14.64
2017-08-12T07:12:07.987Z,16.16
2017-08-12T07:14:35.632Z,15.95
2017-08-12T07:17:03.243Z,15.23
2017-08-12T07:19:30.845Z,14.63
2017-08-12T07:21:58.491Z,14.60
2017-08-12T07:24:26.097Z,14.23
2017-08-12T07:26:53.697Z,14.42
2017-08-12T07:29:21.363Z,14.86
2017-08-12T07:31:48.980Z,15.10
2017-08-12T07:34:16.583Z,15.13
2017-08-12T07:36:44.252Z,15.52
2017-08-12T07:39:11.854Z,14.57
2017-08-12T07:41:39.536Z,15.18
2017-08-12T07:44:07.178Z,16.37
2017-08-12T07:46:34.782Z,15.12
2017-08-12T07:49:02.386Z,16.14
2017-08-12T07:51:30.030Z,15.12
2017-08-12T07:53:57.743Z,15.35
2017-08-12T07:56:25.332Z,16.81
2017-08-12T07:58:52.979Z,16.59
2017-08-12T08:01:20.581Z,15.92
2017-08-12T08:03:48.321Z,15.80
2017-08-12T08:06:15.980Z,15.58
2017-08-12T08:08:43.599Z,15.54
2017-08-12T08:11:11.215Z,15.19
2017-08-12T08:13:38.854Z,15.00
2017-08-12T08:16:06.456Z,14.96
2017-08-12T08:18:34.085Z,15.44
2017-08-12T08:21:01.729Z,16.97
2017-08-12T08:23:29.325Z,15.80
2017-08-12T08:25:56.939Z,14.70
2017-08-12T08:28:24.586Z,16.24
2017-08-12T08:30:52.208Z,16.84
2017-08-12T08:33:19.827Z,17.69
2017-08-12T08:35:47.476Z,16.59
2017-08-12T08:38:15.088Z,15.55
2017-08-12T08:40:42.704Z,15.48
2017-08-12T08:43:10.346Z,15.01
2017-08-12T08:45:37.938Z,14.67
2017-08-12T08:48:05.536Z,14.71
2017-08-12T08:50:33.195Z,13.30
2017-08-12T08:53:00.877Z,14.44
2017-08-12T08:55:28.728Z,14.04
2017-08-12T08:57:56.370Z,13.50
2017-08-12T09:00:23.997Z,13.54
2017-08-12T09:02:51.604Z,13.13
2017-08-12T09:05:19.272Z,12.96
2017-08-12T09:07:46.892Z,13.53
2017-08-12T09:10:14.497Z,14.21
2017-08-12T09:12:42.137Z,14.44
2017-08-12T09:15:09.733Z,14.74
2017-08-12T09:17:37.330Z,13.84
2017-08-12T09:20:04.957Z,13.24
2017-08-12T09:22:32.603Z,14.19
2017-08-12T09:25:00.249Z,13.82
2017-08-12T09:27:27.908Z,15.76
2017-08-12T09:29:55.523Z,14.95
2017-08-12T09:32:23.132Z,14.17
2017-08-12T09:34:50.779Z,14.40
2017-08-12T09:37:18.404Z,14.76
2017-08-12T09:39:46.016Z,13.83
2017-08-12T09:42:13.779Z,14.85
2017-08-12T09:44:41.404Z,14.52
2017-08-12T09:47:09.005Z,14.40
2017-08-12T09:49:36.641Z,14.81
2017-08-12T09:52:04.225Z,13.81
2017-08-12T09:54:31.814Z,14.14
2017-08-12T09:56:59.513Z,14.12
2017-08-12T09:59:27.130Z,13.50
2017-08-12T10:01:54.744Z,12.69
2017-08-12T10:04:22.395Z,12.87
2017-08-12T10:06:50.020Z,13.11
2017-08-12T10:09:17.639Z,13.35
2017-08-12T10:11:45.366Z,13.39
2017-08-12T10:14:13.023Z,13.69
2017-08-12T10:16:40.645Z,13.92
2017-08-12T10:19:08.272Z,13.73
2017-08-12T10:21:35.895Z,13.89
2017-08-12T10:24:03.511Z,14.21
2017-08-12T10:26:31.168Z,13.90
2017-08-12T10:28:58.770Z,14.00
2017-08-12T10:31:26.378Z,15.41
2017-08-12T10:33:54.015Z,15.74
2017-08-12T10:36:21.632Z,15.34
2017-08-12T10:38:49.245Z,15.05
2017-08-12T10:41:16.907Z,14.78
2017-08-12T10:43:44.528Z,14.17
2017-08-12T10:46:12.120Z,14.79
2017-08-12T10:48:39.757Z,14.74
2017-08-12T10:51:07.371Z,14.83
2017-08-12T10:53:34.980Z,14.73
2017-08-12T10:56:02.639Z,14.47
2017-08-12T10:58:30.360Z,14.50
2017-08-12T11:00:57.983Z,15.94
2017-08-12T11:03:25.668Z,14.29
2017-08-12T11:05:53.262Z,14.45
2017-08-12T11:08:20.866Z,14.38
2017-08-12T11:10:48.559Z,14.60
2017-08-12T11:13:16.161Z,14.56
2017-08-12T11:15:43.763Z,14.33
2017-08-12T11:18:13.284Z,14.72
2017-08-12T11:20:40.890Z,13.88
2017-08-12T11:23:08.503Z,14.66
2017-08-12T11:25:36.150Z,14.39
2017-08-12T11:28:03.773Z,14.25
2017-08-12T11:30:31.383Z,14.68
2017-08-12T11:32:59.032Z,16.02
2017-08-12T11:35:26.647Z,15.11
2017-08-12T11:37:54.252Z,15.47
2017-08-12T11:40:21.876Z,14.85
2017-08-12T11:42:49.474Z,14.00
2017-08-12T11:45:17.079Z,14.13
2017-08-12T11:47:44.720Z,14.56
2017-08-12T11:50:12.332Z,15.21
2017-08-12T11:52:39.937Z,15.09
2017-08-12T11:55:07.583Z,14.58
2017-08-12T11:57:35.195Z,15.16
2017-08-12T12:00:02.871Z,16.79
2017-08-12T12:02:30.505Z,16.11
2017-08-12T12:04:58.109Z,15.73
2017-08-12T12:07:25.713Z,14.20
2017-08-12T12:09:53.375Z,15.00
2017-08-12T12:12:20.981Z,15.93
2017-08-12T12:14:48.583Z,15.08
2017-08-12T12:17:16.224Z,14.36
2017-08-12T12:19:43.828Z,14.35
2017-08-12T12:22:11.450Z,14.97
2017-08-12T12:24:39.292Z,14.09
2017-08-12T12:27:07.035Z,13.30
2017-08-12T12:29:35.051Z,13.86
2017-08-12T12:32:03.070Z,13.91
2017-08-12T12:34:30.889Z,15.42
2017-08-12T12:36:58.828Z,15.83
2017-08-12T12:39:26.569Z,15.08
2017-08-12T12:41:54.590Z,14.43
2017-08-12T12:44:22.200Z,15.20
2017-08-12T12:46:49.851Z,15.78
2017-08-12T12:49:17.466Z,16.34
2017-08-12T12:51:45.111Z,16.41
2017-08-12T12:54:12.760Z,16.52
2017-08-12T12:56:40.563Z,15.90
2017-08-12T12:59:08.192Z,16.49
2017-08-12T13:01:35.845Z,17.33
2017-08-12T13:04:03.465Z,18.36
2017-08-12T13:06:31.081Z,18.80
2017-08-12T13:08:58.733Z,20.20
2017-08-12T13:11:26.344Z,20.80
2017-08-12T13:13:53.950Z,20.97
2017-08-12T13:16:21.604Z,20.44
2017-08-12T13:18:49.452Z,21.20
2017-08-12T13:21:17.172Z,21.20
2017-08-12T13:23:44.888Z,21.93
2017-08-12T13:26:12.877Z,21.06
2017-08-12T13:28:40.783Z,20.75
2017-08-12T13:31:08.609Z,20.82
2017-08-12T13:33:36.478Z,21.38
2017-08-12T13:36:04.221Z,20.84
2017-08-12T13:38:32.090Z,21.16
2017-08-12T13:40:59.809Z,20.95
2017-08-12T13:43:27.781Z,21.47
2017-08-12T13:45:55.851Z,20.80
2017-08-12T13:48:23.561Z,20.42
2017-08-12T13:50:51.428Z,20.58
2017-08-12T13:53:19.452Z,20.56
2017-08-12T13:55:47.163Z,20.50
2017-08-12T13:58:15.186Z,20.21
2017-08-12T14:00:43.244Z,21.17
2017-08-12T14:03:11.312Z,20.85
2017-08-12T14:05:39.179Z,20.56
2017-08-12T14:08:06.897Z,19.93
2017-08-12T14:10:34.715Z,20.13
2017-08-12T14:13:02.558Z,20.71
2017-08-12T14:15:30.303Z,21.66
2017-08-12T14:17:58.167Z,20.63
2017-08-12T14:20:26.136Z,21.04
2017-08-12T14:22:53.951Z,20.59
2017-08-12T14:25:21.925Z,21.31
2017-08-12T14:27:49.638Z,21.27
2017-08-12T14:30:17.660Z,20.89
2017-08-12T14:32:45.422Z,20.00
2017-08-12T14:35:13.185Z,20.65
2017-08-12T14:37:41.030Z,21.27
2017-08-12T14:40:08.897Z,20.89
2017-08-12T14:42:36.572Z,21.55
2017-08-12T14:45:04.428Z,22.35
2017-08-12T14:47:32.315Z,22.12
2017-08-12T14:50:00.052Z,22.07
2017-08-12T14:52:28.034Z,23.11
2017-08-12T14:54:55.916Z,23.77
2017-08-12T14:57:23.747Z,24.08
2017-08-12T14:59:51.650Z,24.23
2017-08-12T15:02:19.351Z,24.29
2017-08-12T15:04:47.275Z,24.76
2017-08-12T15:07:15.040Z,24.76
2017-08-12T15:09:42.754Z,25.07
2017-08-12T15:12:10.781Z,23.83
2017-08-12T15:14:38.545Z,24.90
2017-08-12T15:17:06.144Z,24.94
2017-08-12T15:19:33.878Z,25.35
2017-08-12T15:22:01.765Z,25.36
2017-08-12T15:24:29.701Z,24.60
2017-08-12T15:26:57.367Z,24.71
2017-08-12T15:29:25.014Z,24.77
2017-08-12T15:31:52.896Z,24.61
2017-08-12T15:34:20.552Z,24.98
2017-08-12T15:36:48.424Z,24.90
2017-08-12T15:39:16.261Z,25.10
2017-08-12T15:41:43.950Z,25.56
2017-08-12T15:44:11.601Z,25.21
2017-08-12T15:46:39.277Z,25.47
2017-08-12T15:49:06.981Z,25.96
2017-08-12T15:51:34.818Z,26.09
2017-08-12T15:54:02.546Z,26.42
2017-08-12T15:56:30.535Z,26.64
2017-08-12T15:58:58.255Z,26.93
2017-08-12T16:01:26.266Z,26.59
2017-08-12T16:03:53.930Z,26.87
2017-08-12T16:06:21.790Z,27.31
2017-08-12T16:08:49.384Z,27.86
2017-08-12T16:11:16.939Z,28.31
2017-08-12T16:13:44.572Z,28.14
2017-08-12T16:16:12.437Z,28.45
2017-08-12T16:18:40.019Z,29.09
2017-08-12T16:21:07.773Z,28.75
2017-08-12T16:23:35.419Z,29.54
2017-08-12T16:26:03.266Z,29.74
2017-08-12T16:28:30.960Z,30.02
2017-08-12T16:30:58.831Z,30.13
2017-08-12T16:33:26.485Z,30.07
2017-08-12T16:35:54.335Z,30.30
2017-08-12T16:38:22.016Z,30.50
2017-08-12T16:40:49.605Z,30.56
2017-08-12T16:43:17.333Z,31.16
2017-08-12T16:45:45.181Z,31.83
2017-08-12T16:48:12.867Z,31.88
2017-08-12T16:50:40.948Z,31.99
2017-08-12T16:53:08.601Z,32.27
2017-08-12T16:55:36.208Z,33.47
2017-08-12T16:58:04.040Z,33.87
2017-08-12T17:00:31.796Z,34.60
2017-08-12T17:02:59.457Z,34.50
2017-08-12T17:05:27.123Z,34.98
2017-08-12T17:07:54.989Z,35.39
2017-08-12T17:10:22.709Z,35.95
2017-08-12T17:12:50.429Z,36.34
2017-08-12T17:15:18.239Z,37.05
2017-08-12T17:17:46.249Z,37.39
2017-08-12T17:20:13.882Z,37.51
2017-08-12T17:22:41.573Z,38.00
2017-08-12T17:25:09.272Z,37.82
2017-08-12T17:27:37.309Z,38.09
2017-08-12T17:30:04.968Z,38.40
2017-08-12T17:32:32.565Z,38.84
2017-08-12T17:35:01.116Z,42.15
2017-08-12T17:37:28.825Z,45.95
2017-08-12T17:39:56.412Z,47.88
2017-08-12T17:42:24.095Z,44.27
2017-08-12T17:44:51.822Z,46.61
2017-08-12T17:47:19.830Z,45.08
2017-08-12T17:49:47.481Z,45.52
2017-08-12T17:52:15.097Z,44.51
2017-08-12T17:54:42.917Z,46.75
2017-08-12T17:57:10.733Z,49.26
2017-08-12T17:59:38.761Z,51.57
2017-08-12T18:02:06.588Z,52.29
2017-08-12T18:04:34.289Z,45.80
2017-08-12T18:07:01.891Z,45.72
2017-08-12T18:09:29.872Z,51.03
2017-08-12T18:11:57.889Z,49.08
2017-08-12T18:14:25.547Z,49.77
2017-08-12T18:16:53.149Z,46.73
2017-08-12T18:19:20.988Z,43.95
2017-08-12T18:21:48.587Z,43.55
2017-08-12T18:24:16.169Z,47.78
2017-08-12T18:26:43.858Z,43.01
2017-08-12T18:29:11.581Z,43.40
2017-08-12T18:31:39.371Z,43.08
2017-08-12T18:34:07.211Z,41.66
2017-08-12T18:36:34.917Z,40.05
2017-08-12T18:39:02.623Z,39.37
2017-08-12T18:41:30.614Z,38.73
2017-08-12T18:43:58.312Z,38.12
2017-08-12T18:46:26.177Z,37.31
2017-08-12T18:48:54.245Z,38.41
2017-08-12T18:51:22.087Z,39.41
2017-08-12T18:53:49.729Z,38.42
2017-08-12T18:56:17.549Z,49.70
2017-08-12T18:58:45.366Z,42.97
2017-08-12T19:01:13.383Z,43.95
2017-08-12T19:03:41.029Z,45.14
2017-08-12T19:06:13.005Z,45.95
2017-08-12T19:08:40.663Z,48.07
2017-08-12T19:11:08.531Z,48.54
2017-08-12T19:13:36.366Z,49.41
2017-08-12T19:16:04.235Z,49.33
2017-08-12T19:18:31.916Z,48.95
2017-08-12T19:20:59.577Z,48.87
2017-08-12T19:23:27.249Z,49.55
2017-08-12T19:25:54.900Z,46.63
2017-08-12T19:28:22.573Z,48.73
2017-08-12T19:30:50.217Z,48.48
2017-08-12T19:33:17.891Z,48.86
2017-08-12T19:35:45.768Z,48.53
2017-08-12T19:38:13.427Z,48.98
2017-08-12T19:40:41.279Z,47.45
2017-08-12T19:43:08.958Z,50.93
2017-08-12T19:45:36.612Z,52.78
2017-08-12T19:48:04.274Z,50.30
2017-08-12T19:50:31.944Z,52.68
2017-08-12T19:52:59.598Z,48.95
2017-08-12T19:55:27.475Z,50.46
2017-08-12T19:57:55.054Z,48.67
2017-08-12T20:00:22.847Z,55.25
2017-08-12T20:02:50.669Z,41.21
2017-08-12T20:05:18.515Z,42.97
2017-08-12T20:07:46.195Z,41.69
2017-08-12T20:10:13.775Z,41.35
2017-08-12T20:12:41.722Z,41.27
2017-08-12T20:15:09.591Z,39.40
2017-08-12T20:17:37.270Z,40.47
2017-08-12T20:20:05.108Z,40.44
2017-08-12T20:22:32.990Z,40.95
2017-08-12T20:25:00.639Z,40.13
2017-08-12T20:27:28.301Z,39.74
2017-08-12T20:29:55.975Z,40.41
2017-08-12T20:32:23.696Z,41.51
2017-08-12T20:34:51.484Z,40.47
2017-08-12T20:37:19.351Z,41.31
2017-08-12T20:39:47.071Z,41.76
2017-08-12T20:42:15.102Z,41.02
2017-08-12T20:44:42.952Z,40.38
2017-08-12T20:47:10.836Z,40.62
2017-08-12T20:49:38.484Z,40.72
2017-08-12T20:52:06.154Z,47.86
2017-08-12T20:54:33.870Z,45.19
2017-08-12T20:57:01.889Z,44.20
2017-08-12T20:59:29.755Z,46.94
2017-08-12T21:01:57.422Z,46.15
2017-08-12T21:04:25.464Z,46.39
2017-08-12T21:06:53.205Z,48.01
2017-08-12T21:09:21.228Z,47.02
2017-08-12T21:11:48.944Z,47.47
2017-08-12T21:14:16.861Z,49.75
2017-08-12T21:16:44.680Z,54.47
2017-08-12T21:19:12.694Z,58.27
2017-08-12T21:21:40.534Z,53.68
2017-08-12T21:24:08.436Z,53.49
2017-08-12T21:26:36.318Z,55.25
2017-08-12T21:29:04.061Z,62.69
2017-08-12T21:31:31.661Z,61.48
2017-08-12T21:33:59.523Z,58.31
2017-08-12T21:36:27.638Z,48.72
2017-08-12T21:38:55.383Z,52.21
2017-08-12T21:41:23.342Z,52.30
2017-08-12T21:43:51.050Z,50.44
2017-08-12T21:46:18.711Z,54.78
2017-08-12T21:48:46.422Z,58.43
2017-08-12T21:51:14.242Z,57.06
2017-08-12T21:53:41.908Z,57.96
2017-08-12T21:56:09.746Z,57.61
2017-08-12T21:58:37.497Z,60.17
2017-08-12T22:01:05.099Z,60.64
2017-08-12T22:03:32.678Z,60.57
2017-08-12T22:06:00.316Z,61.34
2017-08-12T22:08:28.280Z,57.07
2017-08-12T22:10:56.003Z,59.81
2017-08-12T22:13:23.815Z,58.94
2017-08-12T22:15:51.733Z,54.49
2017-08-12T22:18:19.554Z,54.35
2017-08-12T22:20:47.269Z,55.67
2017-08-12T22:23:15.284Z,55.28
2017-08-12T22:25:43.146Z,54.86
2017-08-12T22:28:10.996Z,56.41
2017-08-12T22:30:39.034Z,59.11
2017-08-12T22:33:06.745Z,60.81
2017-08-12T22:35:34.414Z,59.91
2017-08-12T22:38:02.076Z,57.03
2017-08-12T22:40:29.744Z,61.98
2017-08-12T22:42:57.606Z,56.82
2017-08-12T22:45:25.263Z,57.03
2017-08-12T22:47:52.918Z,58.10
2017-08-12T22:50:20.771Z,60.16
2017-08-12T22:52:48.363Z,59.53
2017-08-12T22:55:16.118Z,62.43
2017-08-12T22:57:43.738Z,58.98
2017-08-12T23:00:11.646Z,67.00
2017-08-12T23:02:39.362Z,67.42
2017-08-12T23:05:07.176Z,66.17
2017-08-12T23:07:34.836Z,66.12
2017-08-12T23:10:02.490Z,68.20
2017-08-12T23:12:30.163Z,70.28
2017-08-12T23:14:57.842Z,71.24
2017-08-12T23:17:25.791Z,70.91
2017-08-12T23:19:53.764Z,70.79
2017-08-12T23:22:21.627Z,69.76
2017-08-12T23:24:49.380Z,70.26
2017-08-12T23:27:17.156Z,71.00
2017-08-12T23:29:44.992Z,71.04
2017-08-12T23:32:12.671Z,71.50
2017-08-12T23:34:40.528Z,72.29
2017-08-12T23:37:08.213Z,70.90
2017-08-12T23:39:35.995Z,71.07
2017-08-12T23:42:03.935Z,71.14
2017-08-12T23:44:31.610Z,71.05
2017-08-12T23:46:59.484Z,72.95
2017-08-12T23:49:27.413Z,73.00
2017-08-12T23:51:55.378Z,70.34
2017-08-12T23:54:23.078Z,60.26
2017-08-12T23:56:51.111Z,60.43
2017-08-12T23:59:18.713Z,60.68
